createdAt,value
2022-09-03T00:00:17.708Z,2.00
2022-09-03T00:02:45.349Z,4.27
2022-09-03T00:05:39.831Z,2.77
2022-09-03T00:08:22.203Z,3.57
2022-09-03T00:11:10.879Z,2.60
2022-09-03T00:13:38.413Z,2.50
2022-09-03T00:16:06.079Z,2.03
2022-09-03T00:18:33.620Z,2.00
2022-09-03T00:21:13.459Z,2.78
2022-09-03T00:23:41.106Z,4.60
2022-09-03T00:26:14.647Z,2.13
2022-09-03T00:28:44.850Z,2.50
2022-09-03T00:31:15.523Z,3.93
2022-09-03T00:33:43.072Z,3.37
2022-09-03T00:36:29.047Z,5.63
2022-09-03T00:38:56.631Z,2.07
2022-09-03T00:41:24.235Z,2.73
2022-09-03T00:44:04.235Z,2.00
2022-09-03T00:46:34.551Z,4.67
2022-09-03T00:49:11.749Z,2.20
2022-09-03T00:51:39.324Z,2.77
2022-09-03T00:54:16.531Z,2.00
2022-09-03T00:57:02.465Z,3.50
2022-09-03T00:59:48.097Z,2.40
2022-09-03T01:02:21.962Z,1.80
2022-09-03T01:05:02.442Z,4.40
2022-09-03T01:07:32.457Z,3.70
2022-09-03T01:10:02.946Z,2.07
2022-09-03T01:12:36.586Z,2.00
2022-09-03T01:15:22.337Z,1.90
2022-09-03T01:18:07.788Z,3.62
2022-09-03T01:20:50.710Z,2.57
2022-09-03T01:23:23.898Z,2.23
2022-09-03T01:26:12.573Z,2.53
2022-09-03T01:28:42.884Z,2.47
2022-09-03T01:31:19.244Z,2.43
2022-09-03T01:34:17.565Z,3.33
2022-09-03T01:36:51.203Z,1.50
2022-09-03T01:39:22.278Z,3.93
2022-09-03T01:42:20.888Z,2.63
2022-09-03T01:45:02.833Z,3.67
2022-09-03T01:47:48.309Z,5.07
2022-09-03T01:50:41.257Z,2.73
2022-09-03T01:53:24.599Z,2.20
2022-09-03T01:56:04.417Z,2.30
2022-09-03T01:58:50.021Z,2.30
2022-09-03T02:01:18.433Z,2.87
2022-09-03T02:03:45.968Z,1.67
2022-09-03T02:06:14.305Z,1.70
2022-09-03T02:08:41.916Z,4.47
2022-09-03T02:11:09.536Z,2.10
2022-09-03T02:13:39.950Z,2.37
2022-09-03T02:16:07.745Z,2.97
2022-09-03T02:18:35.162Z,3.27
2022-09-03T02:21:02.719Z,5.13
2022-09-03T02:23:30.314Z,2.33
2022-09-03T02:25:58.656Z,3.47
2022-09-03T02:28:26.229Z,4.43
2022-09-03T02:30:53.923Z,4.47
2022-09-03T02:33:22.324Z,2.93
2022-09-03T02:35:49.828Z,3.40
2022-09-03T02:38:17.433Z,5.13
2022-09-03T02:40:44.997Z,4.55
2022-09-03T02:43:12.582Z,2.77
2022-09-03T02:45:40.205Z,4.50
2022-09-03T02:48:07.768Z,4.00
2022-09-03T02:50:35.343Z,3.50
2022-09-03T02:53:02.946Z,4.40
2022-09-03T02:55:30.551Z,2.87
2022-09-03T02:57:58.124Z,3.97
2022-09-03T03:00:26.644Z,3.97
2022-09-03T03:02:54.236Z,3.00
2022-09-03T03:05:24.250Z,2.40
2022-09-03T03:07:52.611Z,3.58
2022-09-03T03:10:20.205Z,3.10
2022-09-03T03:12:47.779Z,3.83
2022-09-03T03:15:16.278Z,4.57
2022-09-03T03:17:43.854Z,2.83
2022-09-03T03:20:11.491Z,3.57
2022-09-03T03:22:39.385Z,3.00
2022-09-03T03:25:07.058Z,2.93
2022-09-03T03:27:34.643Z,2.53
2022-09-03T03:30:03.900Z,4.60
2022-09-03T03:32:31.475Z,4.13
2022-09-03T03:34:59.048Z,3.80
2022-09-03T03:37:27.429Z,4.62
2022-09-03T03:39:55.814Z,3.47
2022-09-03T03:42:23.345Z,2.57
2022-09-03T03:44:50.960Z,6.27
2022-09-03T03:47:18.534Z,4.17
2022-09-03T03:49:46.107Z,3.30
2022-09-03T03:52:13.701Z,5.73
2022-09-03T03:54:41.275Z,5.50
2022-09-03T03:57:09.618Z,4.00
2022-09-03T03:59:38.413Z,4.33
2022-09-03T04:02:06.006Z,5.00
2022-09-03T04:04:33.558Z,4.13
2022-09-03T04:07:02.318Z,4.67
2022-09-03T04:09:29.888Z,5.30
2022-09-03T04:11:57.452Z,4.37
2022-09-03T04:14:26.325Z,3.23
2022-09-03T04:16:53.987Z,4.70
2022-09-03T04:19:22.263Z,4.57
2022-09-03T04:21:49.875Z,4.47
2022-09-03T04:24:17.469Z,8.20
2022-09-03T04:26:45.053Z,4.10
2022-09-03T04:29:12.686Z,5.00
2022-09-03T04:31:40.272Z,6.47
2022-09-03T04:34:07.834Z,4.63
2022-09-03T04:36:36.926Z,4.77
2022-09-03T04:39:03.017Z,3.30
2022-09-03T04:41:30.577Z,6.13
2022-09-03T04:43:58.184Z,4.27
2022-09-03T04:46:26.588Z,4.40
2022-09-03T04:48:54.096Z,3.40
2022-09-03T04:51:24.286Z,5.00
2022-09-03T04:53:54.494Z,4.10
2022-09-03T04:56:22.087Z,4.33
2022-09-03T04:58:51.226Z,4.97
2022-09-03T05:01:18.096Z,4.60
2022-09-03T05:03:45.612Z,2.70
2022-09-03T05:06:13.240Z,1.90
2022-09-03T05:08:40.829Z,2.67
2022-09-03T05:11:08.453Z,2.37
2022-09-03T05:13:36.072Z,4.70
2022-09-03T05:16:06.923Z,3.90
2022-09-03T05:18:37.796Z,2.27
2022-09-03T05:21:06.857Z,4.50
2022-09-03T05:23:37.920Z,2.07
2022-09-03T05:26:05.268Z,4.03
2022-09-03T05:28:32.904Z,6.10
2022-09-03T05:31:03.124Z,3.67
2022-09-03T05:33:30.757Z,3.00
2022-09-03T05:36:07.215Z,6.07
2022-09-03T05:38:34.787Z,5.25
2022-09-03T05:41:03.154Z,3.10
2022-09-03T05:43:30.766Z,3.90
2022-09-03T05:46:07.125Z,6.93
2022-09-03T05:48:34.694Z,4.07
2022-09-03T05:51:10.983Z,4.20
2022-09-03T05:53:38.590Z,12.60
2022-09-03T05:56:06.932Z,3.57
2022-09-03T05:58:34.501Z,2.60
2022-09-03T06:01:14.006Z,3.33
2022-09-03T06:03:41.682Z,5.10
2022-09-03T06:06:09.180Z,4.60
2022-09-03T06:08:40.708Z,6.73
2022-09-03T06:11:08.301Z,9.47
2022-09-03T06:13:36.654Z,4.82
2022-09-03T06:16:04.358Z,6.67
2022-09-03T06:18:32.226Z,3.07
2022-09-03T06:21:02.666Z,2.33
2022-09-03T06:23:30.290Z,4.70
2022-09-03T06:26:07.591Z,3.30
2022-09-03T06:28:35.204Z,4.13
2022-09-03T06:31:02.775Z,3.90
2022-09-03T06:33:33.008Z,3.70
2022-09-03T06:36:00.944Z,3.13
2022-09-03T06:38:28.252Z,4.30
2022-09-03T06:40:55.826Z,4.57
2022-09-03T06:43:23.449Z,5.13
2022-09-03T06:45:57.715Z,4.13
2022-09-03T06:48:25.281Z,3.33
2022-09-03T06:50:56.306Z,4.53
2022-09-03T06:53:23.888Z,3.77
2022-09-03T06:56:00.324Z,5.00
2022-09-03T06:58:30.912Z,3.83
2022-09-03T07:01:07.251Z,7.53
2022-09-03T07:03:34.712Z,3.23
2022-09-03T07:06:08.106Z,4.37
2022-09-03T07:08:35.689Z,2.60
2022-09-03T07:11:03.274Z,3.27
2022-09-03T07:13:31.664Z,3.83
2022-09-03T07:15:59.257Z,3.83
2022-09-03T07:18:26.852Z,3.60
2022-09-03T07:20:54.444Z,3.70
2022-09-03T07:23:22.777Z,2.50
2022-09-03T07:25:53.325Z,4.07
2022-09-03T07:28:21.717Z,3.65
2022-09-03T07:30:50.058Z,4.33
2022-09-03T07:33:17.642Z,5.00
2022-09-03T07:35:46.036Z,4.47
2022-09-03T07:38:13.637Z,4.07
2022-09-03T07:40:41.212Z,4.40
2022-09-03T07:43:08.831Z,6.77
2022-09-03T07:45:36.420Z,5.33
2022-09-03T07:48:03.994Z,6.30
2022-09-03T07:50:31.646Z,6.53
2022-09-03T07:52:59.200Z,7.43
2022-09-03T07:55:26.784Z,7.03
2022-09-03T07:57:57.413Z,14.90
2022-09-03T08:00:25.070Z,9.47
2022-09-03T08:02:53.553Z,6.27
2022-09-03T08:05:20.942Z,8.00
2022-09-03T08:07:48.525Z,10.88
2022-09-03T08:10:16.109Z,12.50
2022-09-03T08:12:43.742Z,9.47
2022-09-03T08:15:11.310Z,12.75
2022-09-03T08:17:38.881Z,7.53
2022-09-03T08:20:07.683Z,7.80
2022-09-03T08:22:35.256Z,6.80
2022-09-03T08:25:02.839Z,6.83
2022-09-03T08:27:31.243Z,9.13
2022-09-03T08:29:58.834Z,9.47
2022-09-03T08:32:26.420Z,8.87
2022-09-03T08:34:54.033Z,9.23
2022-09-03T08:37:21.647Z,10.40
2022-09-03T08:39:49.241Z,7.70
2022-09-03T08:42:25.651Z,9.98
2022-09-03T08:44:55.928Z,9.23
2022-09-03T08:47:38.592Z,8.02
2022-09-03T08:50:11.887Z,8.63
2022-09-03T08:52:51.455Z,8.00
2022-09-03T08:55:25.456Z,7.50
2022-09-03T08:58:05.314Z,6.97
2022-09-03T09:00:42.459Z,9.00
2022-09-03T09:03:16.210Z,7.00
2022-09-03T09:05:55.825Z,7.75
2022-09-03T09:08:38.001Z,7.53
2022-09-03T09:11:14.616Z,8.70
2022-09-03T09:13:43.597Z,7.85
2022-09-03T09:16:14.123Z,6.40
2022-09-03T09:19:02.531Z,8.20
2022-09-03T09:21:42.561Z,7.13
2022-09-03T09:24:10.178Z,8.40
2022-09-03T09:26:37.831Z,5.80
2022-09-03T09:29:05.414Z,6.70
2022-09-03T09:31:33.823Z,6.60
2022-09-03T09:34:06.763Z,6.67
2022-09-03T09:36:42.902Z,8.80
2022-09-03T09:39:10.494Z,7.67
2022-09-03T09:41:38.860Z,7.17
2022-09-03T09:44:06.825Z,8.43
2022-09-03T09:46:37.399Z,7.67
2022-09-03T09:49:04.711Z,6.63
2022-09-03T09:51:32.287Z,7.43
2022-09-03T09:54:15.960Z,6.63
2022-09-03T09:56:44.340Z,8.07
2022-09-03T09:59:11.914Z,7.43
2022-09-03T10:01:42.116Z,7.53
2022-09-03T10:04:12.037Z,8.53
2022-09-03T10:06:54.763Z,8.73
2022-09-03T10:09:22.388Z,7.60
2022-09-03T10:12:14.832Z,9.87
2022-09-03T10:14:52.013Z,7.07
2022-09-03T10:17:19.855Z,7.17
2022-09-03T10:19:47.161Z,6.47
2022-09-03T10:22:14.775Z,6.53
2022-09-03T10:25:01.546Z,8.47
2022-09-03T10:27:29.413Z,7.60
2022-09-03T10:29:56.996Z,7.33
2022-09-03T10:32:39.058Z,8.02
2022-09-03T10:35:35.315Z,6.87
2022-09-03T10:38:21.135Z,7.37
2022-09-03T10:40:51.935Z,7.73
2022-09-03T10:43:22.349Z,6.47
2022-09-03T10:46:04.687Z,7.73
2022-09-03T10:48:37.876Z,7.45
2022-09-03T10:51:17.473Z,6.97
2022-09-03T10:53:51.200Z,7.15
2022-09-03T10:56:21.565Z,8.03
2022-09-03T10:59:17.689Z,8.38
2022-09-03T11:01:58.734Z,7.93
2022-09-03T11:04:44.219Z,7.63
2022-09-03T11:07:14.501Z,7.60
2022-09-03T11:09:54.075Z,5.10
2022-09-03T11:12:24.614Z,6.07
2022-09-03T11:14:52.198Z,5.57
2022-09-03T11:17:20.540Z,6.30
2022-09-03T11:19:51.348Z,4.90
2022-09-03T11:22:20.870Z,4.37
2022-09-03T11:24:46.481Z,6.00
2022-09-03T11:27:16.753Z,5.00
2022-09-03T11:29:53.721Z,5.00
2022-09-03T11:32:22.098Z,4.87
2022-09-03T11:34:49.678Z,5.10
2022-09-03T11:37:22.995Z,4.30
2022-09-03T11:39:59.388Z,4.97
2022-09-03T11:42:32.911Z,4.30
2022-09-03T11:45:00.485Z,3.70
2022-09-03T11:47:41.252Z,4.33
2022-09-03T11:50:18.831Z,4.47
2022-09-03T11:52:46.444Z,4.27
2022-09-03T11:55:14.028Z,4.10
2022-09-03T11:57:41.624Z,4.90
2022-09-03T12:00:12.304Z,4.85
2022-09-03T12:02:43.763Z,4.37
2022-09-03T12:05:18.162Z,6.03
2022-09-03T12:07:45.744Z,3.63
2022-09-03T12:10:13.329Z,4.87
2022-09-03T12:12:43.619Z,4.40
2022-09-03T12:15:39.054Z,3.80
2022-09-03T12:18:21.529Z,6.63
2022-09-03T12:20:49.113Z,6.80
2022-09-03T12:23:34.970Z,23.42
2022-09-03T12:26:08.360Z,12.93
2022-09-03T12:28:35.933Z,5.67
2022-09-03T12:31:06.778Z,3.80
2022-09-03T12:33:34.283Z,3.90
2022-09-03T12:36:02.625Z,5.73
2022-09-03T12:38:30.238Z,6.50
2022-09-03T12:43:43.281Z,12.47
2022-09-03T12:48:20.604Z,12.13
2022-09-03T12:50:56.162Z,3.37
2022-09-03T12:53:15.776Z,1.00
2022-09-03T12:55:44.131Z,11.77
2022-09-03T12:58:13.982Z,1.83
2022-09-03T13:00:39.335Z,3.58
2022-09-03T13:03:09.337Z,6.10
2022-09-03T13:05:43.104Z,2.27
2022-09-03T13:08:11.529Z,2.13
2022-09-03T13:10:39.072Z,4.10
2022-09-03T13:13:24.856Z,3.57
2022-09-03T13:15:55.359Z,3.90
2022-09-03T13:18:45.048Z,2.87
2022-09-03T13:21:27.717Z,3.43
2022-09-03T13:24:13.958Z,2.17
2022-09-03T13:26:59.708Z,3.57
2022-09-03T13:29:30.282Z,3.00
2022-09-03T13:32:06.103Z,3.42
2022-09-03T13:34:32.121Z,4.40
2022-09-03T13:37:26.752Z,6.23
2022-09-03T13:40:02.798Z,5.70
2022-09-03T13:42:39.250Z,5.80
2022-09-03T13:45:31.720Z,3.47
2022-09-03T13:48:26.899Z,5.95
2022-09-03T13:51:03.845Z,4.43
2022-09-03T13:53:49.851Z,5.53
2022-09-03T13:56:19.908Z,5.17
2022-09-03T13:58:50.390Z,6.37
2022-09-03T14:01:24.178Z,5.33
2022-09-03T14:03:58.620Z,3.93
2022-09-03T14:06:38.471Z,4.87
2022-09-03T14:09:24.884Z,4.53
2022-09-03T14:12:02.221Z,4.10
2022-09-03T14:14:41.783Z,5.07
2022-09-03T14:17:24.470Z,3.83
2022-09-03T14:20:00.998Z,3.30
2022-09-03T14:22:32.162Z,2.97
2022-09-03T14:25:06.490Z,3.10
2022-09-03T14:27:34.074Z,3.10
2022-09-03T14:30:01.694Z,3.30
2022-09-03T14:32:42.308Z,2.13
2022-09-03T14:35:27.864Z,2.17
2022-09-03T14:38:16.418Z,2.90
2022-09-03T14:40:46.776Z,2.97
2022-09-03T14:43:29.450Z,2.23
2022-09-03T14:46:05.964Z,1.05
2022-09-03T14:48:54.463Z,1.23
2022-09-03T14:51:40.626Z,1.02
2022-09-03T14:54:20.783Z,2.00
2022-09-03T14:57:08.453Z,1.47
2022-09-03T14:59:38.292Z,1.30
2022-09-03T15:02:11.714Z,0.90
2022-09-03T15:04:39.276Z,1.35
2022-09-03T15:07:30.747Z,1.07
2022-09-03T15:10:19.598Z,1.53
2022-09-03T15:12:53.120Z,2.63
2022-09-03T15:15:20.703Z,1.47
2022-09-03T15:18:15.315Z,1.47
2022-09-03T15:20:55.492Z,1.45
2022-09-03T15:23:44.866Z,1.10
2022-09-03T15:26:31.187Z,2.40
2022-09-03T15:29:13.481Z,1.27
2022-09-03T15:31:59.397Z,0.83
2022-09-03T15:34:43.015Z,1.63
2022-09-03T15:37:28.628Z,1.63
2022-09-03T15:39:59.648Z,1.50
2022-09-03T15:42:27.846Z,0.90
2022-09-03T15:44:55.436Z,1.47
2022-09-03T15:47:51.212Z,1.15
2022-09-03T15:50:03.481Z,1.17
2022-09-03T15:52:56.264Z,1.47
2022-09-03T15:55:29.775Z,2.03
2022-09-03T15:58:00.304Z,1.95
2022-09-03T16:00:27.878Z,2.40
2022-09-03T16:02:59.186Z,1.40
2022-09-03T16:05:26.809Z,1.60
2022-09-03T16:08:18.783Z,2.77
2022-09-03T16:10:58.122Z,2.77
2022-09-03T16:13:34.430Z,1.53
2022-09-03T16:16:04.890Z,4.33
2022-09-03T16:18:38.064Z,1.63
2022-09-03T16:21:23.944Z,2.73
2022-09-03T16:23:54.325Z,2.90
2022-09-03T16:26:28.043Z,3.17
2022-09-03T16:28:55.657Z,1.87
2022-09-03T16:31:51.257Z,1.55
2022-09-03T16:34:24.803Z,1.83
2022-09-03T16:37:14.168Z,2.10
2022-09-03T16:39:50.828Z,1.52
2022-09-03T16:42:42.663Z,2.25
2022-09-03T16:45:16.234Z,2.23
2022-09-03T16:47:52.542Z,1.57
2022-09-03T16:50:32.522Z,2.13
2022-09-03T16:53:04.103Z,3.35
2022-09-03T16:56:05.441Z,1.33
2022-09-03T16:58:33.774Z,0.97
2022-09-03T17:01:13.245Z,1.70
2022-09-03T17:04:17.689Z,1.80
2022-09-03T17:07:09.533Z,2.80
2022-09-03T17:09:56.531Z,3.27
2022-09-03T17:12:26.571Z,3.57
2022-09-03T17:15:12.485Z,2.73
2022-09-03T17:17:48.792Z,1.30
2022-09-03T17:20:19.437Z,1.73
2022-09-03T17:22:58.821Z,0.97
2022-09-03T17:25:38.055Z,1.40
2022-09-03T17:28:25.235Z,3.17
2022-09-03T17:30:57.129Z,2.22
2022-09-03T17:33:33.056Z,2.17
2022-09-03T17:36:00.631Z,1.00
2022-09-03T17:38:28.205Z,1.10
2022-09-03T17:41:20.000Z,2.10
2022-09-03T17:43:56.752Z,2.42
2022-09-03T17:46:51.616Z,0.80
2022-09-03T17:49:21.880Z,1.70
2022-09-03T17:52:04.420Z,1.20
2022-09-03T17:54:40.925Z,1.03
2022-09-03T17:57:20.552Z,6.50
2022-09-03T17:59:53.855Z,3.13
2022-09-03T18:02:42.466Z,1.07
2022-09-03T18:05:18.862Z,1.90
2022-09-03T18:08:01.417Z,2.30
2022-09-03T18:10:44.002Z,1.67
2022-09-03T18:13:37.132Z,0.83
2022-09-03T18:16:16.665Z,2.27
2022-09-03T18:18:46.926Z,1.07
2022-09-03T18:21:33.435Z,2.07
2022-09-03T18:24:26.004Z,2.30
2022-09-03T18:27:14.630Z,2.30
2022-09-03T18:30:04.161Z,2.23
2022-09-03T18:32:49.744Z,2.10
2022-09-03T18:35:35.358Z,1.93
2022-09-03T18:38:23.792Z,3.73
2022-09-03T18:41:09.198Z,2.43
2022-09-03T18:43:55.930Z,4.00
2022-09-03T18:48:02.274Z,2.50
2022-09-03T18:49:40.034Z,2.77
2022-09-03T18:52:30.442Z,5.10
2022-09-03T18:55:28.223Z,3.37
2022-09-03T18:58:29.327Z,3.12
2022-09-03T19:01:20.821Z,2.97
2022-09-03T19:04:19.559Z,1.83
2022-09-03T19:07:23.195Z,1.97
2022-09-03T19:10:13.558Z,3.60
2022-09-03T19:13:20.270Z,2.13
2022-09-03T19:16:07.140Z,3.25
2022-09-03T19:18:55.228Z,5.07
2022-09-03T19:21:46.887Z,2.47
2022-09-03T19:24:32.944Z,2.87
2022-09-03T19:27:53.013Z,2.00
2022-09-03T19:30:13.835Z,1.00
2022-09-03T19:33:25.496Z,1.30
2022-09-03T19:36:17.270Z,5.20
2022-09-03T19:39:08.887Z,3.43
2022-09-03T19:41:55.557Z,4.07
2022-09-03T19:44:53.113Z,3.07
2022-09-03T19:47:44.660Z,2.23
2022-09-03T19:50:39.923Z,3.17
2022-09-03T19:53:25.777Z,1.93
2022-09-03T19:56:14.315Z,3.13
2022-09-03T19:59:01.255Z,3.08
2022-09-03T20:01:47.925Z,2.80
2022-09-03T20:04:33.475Z,2.37
2022-09-03T20:07:19.210Z,4.03
2022-09-03T20:10:04.745Z,2.70
2022-09-03T20:12:32.373Z,3.17
2022-09-03T20:14:59.937Z,1.73
2022-09-03T20:17:42.522Z,3.43
2022-09-03T20:20:12.632Z,3.07
2022-09-03T20:22:43.854Z,2.43
2022-09-03T20:25:33.277Z,6.37
2022-09-03T20:28:00.865Z,4.47
2022-09-03T20:30:37.548Z,2.13
2022-09-03T20:33:11.189Z,2.45
2022-09-03T20:35:44.343Z,2.90
2022-09-03T20:38:42.921Z,2.83
2022-09-03T20:41:13.440Z,3.55
2022-09-03T20:43:43.440Z,4.30
2022-09-03T20:46:13.783Z,2.53
2022-09-03T20:48:41.309Z,2.83
2022-09-03T20:51:12.213Z,6.20
2022-09-03T20:54:00.710Z,1.93
2022-09-03T20:56:34.117Z,3.37
2022-09-03T20:59:10.895Z,4.93
2022-09-03T21:01:53.268Z,2.87
2022-09-03T21:04:42.223Z,1.67
2022-09-03T21:07:27.852Z,4.10
2022-09-03T21:10:19.294Z,2.87
2022-09-03T21:12:49.314Z,3.72
2022-09-03T21:15:23.711Z,3.07
2022-09-03T21:18:03.051Z,3.00
2022-09-03T21:20:48.268Z,2.07
2022-09-03T21:23:30.869Z,2.85
2022-09-03T21:26:00.243Z,2.73
2022-09-03T21:28:39.404Z,1.97
2022-09-03T21:31:19.447Z,3.45
2022-09-03T21:33:52.141Z,4.67
2022-09-03T21:36:31.236Z,2.50
2022-09-03T21:39:01.760Z,2.83
2022-09-03T21:41:35.009Z,3.80
2022-09-03T21:44:11.799Z,2.00
2022-09-03T21:46:42.081Z,3.17
2022-09-03T21:49:10.429Z,2.37
2022-09-03T21:52:02.460Z,4.60
2022-09-03T21:54:32.948Z,2.77
2022-09-03T21:57:22.350Z,2.95
2022-09-03T21:59:48.773Z,4.67
2022-09-03T22:02:28.383Z,3.10
2022-09-03T22:04:55.909Z,4.03
2022-09-03T22:07:26.689Z,3.67
2022-09-03T22:09:56.937Z,3.23
2022-09-03T22:12:30.115Z,3.53
2022-09-03T22:14:57.687Z,2.67
2022-09-03T22:17:31.011Z,2.30
2022-09-03T22:19:59.354Z,2.33
2022-09-03T22:22:35.602Z,3.53
2022-09-03T22:25:05.785Z,4.10
2022-09-03T22:27:45.569Z,5.93
2022-09-03T22:30:13.168Z,4.77
2022-09-03T22:32:50.027Z,3.93
2022-09-03T22:35:33.512Z,4.27
2022-09-03T22:38:22.201Z,3.67
2022-09-03T22:40:55.472Z,3.10
2022-09-03T22:43:47.918Z,4.07
2022-09-03T22:46:15.570Z,6.03
2022-09-03T22:49:01.113Z,3.80
2022-09-03T22:51:28.955Z,5.07
2022-09-03T22:54:07.919Z,5.83
2022-09-03T22:56:36.587Z,5.07
2022-09-03T22:59:06.760Z,5.00
2022-09-03T23:01:34.365Z,6.45
2022-09-03T23:04:08.020Z,4.80
2022-09-03T23:06:40.852Z,6.70
2022-09-03T23:09:11.016Z,5.43
2022-09-03T23:11:41.309Z,6.80
2022-09-03T23:14:09.669Z,5.17
2022-09-03T23:16:37.274Z,5.63
2022-09-03T23:19:07.673Z,6.37
2022-09-03T23:21:38.092Z,7.30
2022-09-03T23:24:05.669Z,6.30
2022-09-03T23:26:42.328Z,6.82
2022-09-03T23:29:15.936Z,7.30
2022-09-03T23:31:44.321Z,5.37
2022-09-03T23:34:11.892Z,6.80
2022-09-03T23:37:32.477Z,6.53
2022-09-03T23:40:05.133Z,11.77
2022-09-03T23:42:54.070Z,10.63
2022-09-03T23:45:46.146Z,12.00
2022-09-03T23:48:51.509Z,20.30
2022-09-03T23:51:56.047Z,7.63
2022-09-03T23:54:38.648Z,9.90
2022-09-03T23:57:14.795Z,9.37
2022-09-03T23:59:55.427Z,20.37
